Time;durP1;ratioP1;P1;durP2;ratioP2;P2;SDS_P1;SDS_P2;PMS_P1;PMS_P2;Temp;Humidity;BMP_temperature;BMP_pressure;BME280_temperature;BME280_humidity;BME280_pressure;Samples;Min_cycle;Max_cycle;Signal;HPM_P1;HPM_P2
2021/09/08 00:02:25;;;;;;;64.88;28.50;;;;;;;16.03;56.33;101001.09;5027049;28;20029;-22
2021/09/08 00:04:50;;;;;;;130.95;52.10;;;;;;;15.97;56.66;101010.91;5025651;28;20481;-22
2021/09/08 00:07:16;;;;;;;158.68;64.03;;;;;;;16.07;56.73;101013.84;5027055;28;20029;-23
2021/09/08 00:09:41;;;;;;;121.88;50.70;;;;;;;16.30;56.19;101017.59;5027032;28;20866;-22
2021/09/08 00:12:07;;;;;;;55.78;25.45;;;;;;;16.44;55.48;101018.19;5026796;28;20045;-22
2021/09/08 00:14:33;;;;;;;51.80;24.42;;;;;;;16.38;55.21;101028.03;5026832;28;20045;-22
2021/09/08 00:16:58;;;;;;;20.13;11.30;;;;;;;16.29;55.79;101034.81;5025849;28;20028;-22
2021/09/08 00:19:24;;;;;;;11.07;4.35;;;;;;;16.22;55.91;101031.41;5026853;28;20873;-22
2021/09/08 00:21:49;;;;;;;10.35;4.22;;;;;;;16.38;55.73;101025.34;5026805;28;20030;-23
2021/09/08 00:24:15;;;;;;;9.32;4.57;;;;;;;16.46;55.00;101016.91;5026914;28;20474;-22
2021/09/08 00:26:40;;;;;;;12.82;5.05;;;;;;;16.14;56.87;101035.28;5025500;28;20042;-23
2021/09/08 00:29:06;;;;;;;13.40;5.43;;;;;;;16.05;56.25;101036.66;5026750;28;20095;-23
2021/09/08 00:31:32;;;;;;;13.60;4.47;;;;;;;15.97;56.40;101018.97;5026989;28;20064;-22
2021/09/08 00:33:57;;;;;;;8.57;3.97;;;;;;;16.04;56.25;101024.28;5026702;28;20107;-22
2021/09/08 00:36:23;;;;;;;8.32;4.22;;;;;;;15.88;56.72;101031.13;5026488;28;20029;-23
2021/09/08 00:38:48;;;;;;;8.93;3.97;;;;;;;16.16;56.17;101032.34;5026758;28;20482;-22
2021/09/08 00:41:13;;;;;;;10.27;4.32;;;;;;;16.06;57.23;101033.75;5026579;28;20032;-22
2021/09/08 00:43:39;;;;;;;14.65;4.72;;;;;;;16.07;56.47;101029.19;5025379;28;20069;-22
2021/09/08 00:46:04;;;;;;;13.00;4.80;;;;;;;15.94;57.03;101024.84;5026776;28;20029;-22
2021/09/08 00:48:30;;;;;;;12.18;5.22;;;;;;;15.96;57.46;101013.84;5026871;28;20041;-23
2021/09/08 00:50:56;;;;;;;9.80;3.97;;;;;;;15.77;58.66;101029.22;5026618;28;20029;-22
2021/09/08 00:53:21;;;;;;;9.02;3.72;;;;;;;15.57;58.05;101003.44;5026737;28;20048;-22
2021/09/08 00:55:47;;;;;;;8.55;4.43;;;;;;;15.65;58.36;101003.09;5025229;28;20032;-22
2021/09/08 00:58:13;;;;;;;8.93;3.40;;;;;;;15.92;56.89;101016.16;5025481;28;20136;-22
2021/09/08 01:00:39;;;;;;;8.70;3.83;;;;;;;15.94;57.32;100997.13;5026522;28;20128;-22
2021/09/08 01:03:04;;;;;;;10.30;3.70;;;;;;;15.77;57.94;101007.69;5030050;28;20033;-22
2021/09/08 01:05:30;;;;;;;8.07;3.78;;;;;;;15.62;58.03;100989.28;5029830;28;20026;-22
2021/09/08 01:07:56;;;;;;;11.23;4.03;;;;;;;15.81;57.75;101006.19;5030000;28;20037;-22
2021/09/08 01:10:23;;;;;;;7.88;3.55;;;;;;;15.50;57.97;100978.50;5029571;28;20136;-22
2021/09/08 01:12:48;;;;;;;10.55;4.15;;;;;;;15.79;58.22;101006.44;5029949;28;20472;-22
2021/09/08 01:15:14;;;;;;;11.30;5.55;;;;;;;15.84;58.25;100998.50;5030285;28;20069;-23
2021/09/08 01:17:40;;;;;;;13.13;5.85;;;;;;;15.73;58.30;101006.53;5028358;28;20412;-22
2021/09/08 01:20:06;;;;;;;14.57;5.43;;;;;;;15.85;57.74;101004.69;5028556;28;20064;-22
2021/09/08 01:22:33;;;;;;;12.48;5.00;;;;;;;15.70;57.51;100994.34;5029622;28;20409;-22
2021/09/08 01:24:59;;;;;;;12.63;5.10;;;;;;;15.53;58.92;101004.94;5028468;28;20506;-22
2021/09/08 01:27:25;;;;;;;12.45;5.13;;;;;;;15.64;58.93;101004.13;5029532;28;20536;-22
2021/09/08 01:29:50;;;;;;;11.38;4.45;;;;;;;15.74;58.86;100997.41;5028581;28;20025;-22
2021/09/08 01:32:15;;;;;;;12.50;4.72;;;;;;;15.09;59.70;101001.56;5029640;28;20068;-22
2021/09/08 01:34:41;;;;;;;10.77;4.60;;;;;;;15.01;60.29;100988.44;5029460;28;20103;-22
2021/09/08 01:37:06;;;;;;;9.68;4.57;;;;;;;14.92;61.35;100995.19;5029707;28;20026;-22
2021/09/08 01:39:32;;;;;;;10.75;4.20;;;;;;;14.92;61.51;100984.44;5029117;28;20025;-22
2021/09/08 01:41:57;;;;;;;9.40;4.40;;;;;;;14.87;60.57;100966.31;5027969;28;20025;-22
2021/09/08 01:44:23;;;;;;;10.48;4.90;;;;;;;15.08;60.76;100994.56;5028147;28;20489;-22
2021/09/08 01:46:50;;;;;;;10.63;4.95;;;;;;;15.29;60.52;100995.13;5029489;28;20033;-22
2021/09/08 01:49:15;;;;;;;16.90;6.93;;;;;;;15.19;60.35;100974.19;5029561;28;20041;-23
2021/09/08 01:51:41;;;;;;;27.58;12.00;;;;;;;15.29;59.46;100990.56;5028842;28;20037;-22
2021/09/08 01:54:06;;;;;;;33.10;14.73;;;;;;;15.48;59.26;100994.03;5029259;28;20029;-23
2021/09/08 01:56:32;;;;;;;16.02;8.40;;;;;;;15.68;58.22;100986.50;5028981;28;20473;-22
2021/09/08 01:58:57;;;;;;;16.83;6.05;;;;;;;15.79;59.15;100973.31;5029174;28;20083;-23
2021/09/08 02:01:25;;;;;;;10.40;4.90;;;;;;;15.39;59.75;100992.72;5028748;28;20029;-22
2021/09/08 02:03:51;;;;;;;9.77;5.40;;;;;;;15.44;59.84;100982.09;5028867;28;20033;-23
2021/09/08 02:06:23;;;;;;;11.18;4.55;;;;;;;14.79;60.34;100967.44;5029067;28;20049;-22
2021/09/08 02:08:48;;;;;;;11.25;5.35;;;;;;;14.65;62.01;100987.44;5028684;28;20026;-22
2021/09/08 02:11:14;;;;;;;13.27;7.43;;;;;;;14.73;61.86;100976.41;5028604;28;20046;-22
2021/09/08 02:13:39;;;;;;;16.60;7.57;;;;;;;14.99;61.23;100963.69;5027890;28;20038;-22
2021/09/08 02:16:05;;;;;;;13.15;6.10;;;;;;;15.21;60.43;100958.66;5027472;28;20036;-22
2021/09/08 02:18:31;;;;;;;14.88;6.47;;;;;;;15.06;61.51;100985.94;5027509;28;20040;-22
2021/09/08 02:20:56;;;;;;;15.18;6.78;;;;;;;15.18;60.28;100973.38;5028928;28;20029;-22
2021/09/08 02:23:22;;;;;;;15.55;7.20;;;;;;;15.34;60.13;100984.50;5028245;28;20468;-22
2021/09/08 02:25:47;;;;;;;20.15;9.30;;;;;;;15.20;60.23;100973.97;5028467;28;20026;-22
2021/09/08 02:28:18;;;;;;;20.58;10.63;;;;;;;15.33;60.35;100980.19;5028985;28;20099;-22
2021/09/08 02:30:43;;;;;;;22.00;11.30;;;;;;;15.17;61.07;100979.78;5028492;28;20037;-22
2021/09/08 02:33:09;;;;;;;29.17;12.25;;;;;;;15.04;60.01;100982.66;5028200;28;20056;-22
2021/09/08 02:35:34;;;;;;;21.02;9.10;;;;;;;15.39;59.78;100968.53;5028267;28;20029;-22
2021/09/08 02:38:00;;;;;;;17.17;7.00;;;;;;;15.82;57.69;100976.38;5027001;28;20422;-23
2021/09/08 02:40:25;;;;;;;16.90;8.27;;;;;;;15.74;58.87;100975.91;5028238;28;20034;-23
2021/09/08 02:42:50;;;;;;;16.23;8.23;;;;;;;15.70;58.52;100969.31;5028183;28;20140;-23
2021/09/08 02:45:16;;;;;;;16.90;7.85;;;;;;;15.64;60.72;100971.06;5028115;28;20040;-22
2021/09/08 02:47:41;;;;;;;16.98;7.53;;;;;;;15.51;60.01;100985.53;5027715;28;20473;-22
2021/09/08 02:50:07;;;;;;;12.65;7.15;;;;;;;15.61;61.53;100966.97;5028065;28;20508;-23
2021/09/08 02:52:33;;;;;;;32.00;13.93;;;;;;;15.50;61.15;100970.44;5028034;28;20029;-22
2021/09/08 02:54:58;;;;;;;32.13;14.88;;;;;;;15.26;61.80;100954.25;5028053;28;20486;-23
2021/09/08 02:57:24;;;;;;;26.05;11.95;;;;;;;14.93;63.57;100964.59;5027763;28;20021;-22
2021/09/08 02:59:49;;;;;;;102.30;38.72;;;;;;;15.35;61.55;100970.03;5028092;28;20041;-23
2021/09/08 03:02:15;;;;;;;115.40;45.33;;;;;;;15.30;62.36;100975.25;5027908;28;20026;-23
2021/09/08 03:04:40;;;;;;;27.58;10.05;;;;;;;15.40;61.59;100948.66;5027852;28;20030;-22
2021/09/08 03:07:06;;;;;;;16.92;7.10;;;;;;;15.53;61.42;100959.22;5027730;28;20435;-24
2021/09/08 03:09:31;;;;;;;16.52;7.05;;;;;;;15.38;60.82;100965.00;5027604;28;20044;-22
2021/09/08 03:11:58;;;;;;;20.35;8.65;;;;;;;15.47;61.28;100965.53;5027491;28;20053;-23
2021/09/08 03:14:23;;;;;;;23.70;10.20;;;;;;;15.28;60.42;100962.06;5027565;28;20501;-23
2021/09/08 03:16:49;;;;;;;25.90;12.45;;;;;;;15.04;60.96;100961.97;5027393;28;20037;-23
2021/09/08 03:19:14;;;;;;;27.88;12.70;;;;;;;15.59;62.29;100968.22;5027633;28;20099;-23
2021/09/08 03:21:40;;;;;;;40.40;19.13;;;;;;;15.48;59.32;100964.47;5027245;28;20049;-22
2021/09/08 03:24:05;;;;;;;32.97;13.77;;;;;;;15.24;60.07;100961.72;5027329;28;20107;-23
2021/09/08 03:26:31;;;;;;;24.63;10.90;;;;;;;15.10;60.84;100965.63;5027538;28;20460;-22
2021/09/08 03:28:56;;;;;;;15.73;7.68;;;;;;;14.95;61.43;100959.81;5027390;28;20030;-23
2021/09/08 03:31:21;;;;;;;13.73;6.47;;;;;;;15.32;61.25;100967.78;5027169;28;20044;-23
2021/09/08 03:33:47;;;;;;;10.52;5.60;;;;;;;15.35;61.35;100970.03;5026317;28;20041;-22
2021/09/08 03:36:12;;;;;;;13.05;5.03;;;;;;;15.21;61.96;100967.53;5025645;28;20065;-22
2021/09/08 03:38:38;;;;;;;10.25;4.60;;;;;;;15.12;62.66;100957.31;5027333;28;20057;-22
2021/09/08 03:41:04;;;;;;;26.92;11.60;;;;;;;14.97;62.22;100965.78;5027428;28;20044;-22
2021/09/08 03:43:29;;;;;;;92.43;44.92;;;;;;;15.24;61.43;100953.66;5027066;28;20037;-22
2021/09/08 03:45:55;;;;;;;95.07;42.80;;;;;;;15.44;60.66;100947.97;5026062;28;20025;-23
2021/09/08 03:48:20;;;;;;;66.95;32.72;;;;;;;15.34;61.59;100960.31;5027193;28;20033;-22
2021/09/08 03:50:45;;;;;;;70.22;28.90;;;;;;;15.24;61.83;100967.09;5027330;28;20033;-22
2021/09/08 03:53:11;;;;;;;39.78;20.10;;;;;;;15.37;60.30;100963.38;5027365;28;20044;-23
2021/09/08 03:55:36;;;;;;;43.47;19.60;;;;;;;15.55;59.51;100962.50;5027007;28;20029;-22
2021/09/08 03:58:02;;;;;;;31.30;15.52;;;;;;;15.46;60.95;100956.63;5027099;28;20025;-23
2021/09/08 04:00:27;;;;;;;25.80;11.35;;;;;;;15.42;60.89;100957.31;5026914;28;20038;-22
2021/09/08 04:02:53;;;;;;;12.48;5.70;;;;;;;15.39;60.15;100953.22;5027081;28;20036;-23
2021/09/08 04:05:18;;;;;;;9.70;3.60;;;;;;;15.37;60.82;100962.56;5026994;28;20037;-22
2021/09/08 04:07:44;;;;;;;9.82;4.90;;;;;;;15.28;60.78;100972.78;5026917;28;20029;-22
2021/09/08 04:10:10;;;;;;;7.75;4.18;;;;;;;14.98;61.29;100959.38;5026784;28;20033;-22
2021/09/08 04:12:35;;;;;;;10.73;5.47;;;;;;;15.02;61.73;100974.81;5027254;28;20029;-22
2021/09/08 04:15:00;;;;;;;19.55;8.90;;;;;;;15.18;60.91;100978.75;5026908;28;20038;-22
2021/09/08 04:17:26;;;;;;;11.43;4.28;;;;;;;15.36;60.56;100985.09;5026807;28;20034;-23
2021/09/08 04:19:51;;;;;;;7.05;3.60;;;;;;;15.17;60.93;100977.09;5027193;28;20033;-22
2021/09/08 04:22:17;;;;;;;9.35;3.67;;;;;;;14.78;62.35;100973.84;5027078;28;20029;-23
2021/09/08 04:24:42;;;;;;;6.75;3.45;;;;;;;14.67;63.21;100971.94;5025731;28;20057;-22
2021/09/08 04:27:08;;;;;;;8.68;3.75;;;;;;;14.89;62.91;100968.78;5026822;28;20025;-23
2021/09/08 04:29:33;;;;;;;12.80;5.90;;;;;;;14.86;62.67;100960.13;5026391;28;20436;-22
2021/09/08 04:31:59;;;;;;;13.10;5.57;;;;;;;15.33;61.70;100966.75;5025722;28;20037;-22
2021/09/08 04:34:24;;;;;;;9.80;4.28;;;;;;;15.43;61.17;100972.41;5026836;28;20029;-22
2021/09/08 04:36:50;;;;;;;8.68;4.60;;;;;;;15.65;61.45;100973.53;5029898;28;20028;-23
2021/09/08 04:39:15;;;;;;;9.52;4.25;;;;;;;15.69;60.90;100965.78;5030542;28;20040;-22
2021/09/08 04:41:41;;;;;;;9.10;4.40;;;;;;;15.76;60.32;100965.75;5030354;28;20032;-23
2021/09/08 04:44:06;;;;;;;7.93;3.85;;;;;;;15.59;60.29;100957.47;5030551;28;20038;-22
2021/09/08 04:46:32;;;;;;;9.38;3.97;;;;;;;15.83;59.73;100974.50;5030354;28;20083;-22
2021/09/08 04:48:58;;;;;;;9.25;3.60;;;;;;;15.58;61.01;100971.97;5030769;28;20048;-23
2021/09/08 04:51:24;;;;;;;10.75;3.83;;;;;;;15.57;60.84;100964.94;5030053;28;20068;-22
2021/09/08 04:53:49;;;;;;;7.85;3.67;;;;;;;15.46;60.57;100948.56;5030873;28;20068;-23
2021/09/08 04:56:15;;;;;;;8.85;3.80;;;;;;;15.76;59.69;100979.19;5030590;28;20032;-23
2021/09/08 04:58:40;;;;;;;7.80;3.45;;;;;;;15.82;58.93;100983.63;5030066;28;20030;-22
2021/09/08 05:01:06;;;;;;;6.78;3.33;;;;;;;15.72;59.51;100968.06;5030161;28;20033;-22
2021/09/08 05:03:34;;;;;;;8.40;3.40;;;;;;;15.93;59.12;100973.94;5029793;28;20133;-22
2021/09/08 05:05:59;;;;;;;;;;;;;;;15.47;60.33;100987.03;5030317;28;20017;-23
2021/09/08 05:08:25;;;;;;;35.55;17.13;;;;;;;15.65;60.93;100976.22;5029892;28;19913;-22
2021/09/08 05:10:50;;;;;;;14.65;6.22;;;;;;;15.82;60.53;100965.63;5029550;28;20064;-22
2021/09/08 05:13:15;;;;;;;7.75;4.28;;;;;;;15.64;61.23;100971.88;5029798;28;20034;-22
2021/09/08 05:15:41;;;;;;;8.48;3.80;;;;;;;16.36;60.08;100983.56;5029706;28;20414;-22
2021/09/08 05:18:06;;;;;;;11.07;5.47;;;;;;;16.35;58.77;100966.59;5029615;28;20029;-22
2021/09/08 05:20:32;;;;;;;11.32;5.13;;;;;;;16.38;58.58;100987.63;5030127;28;20489;-22
2021/09/08 05:22:57;;;;;;;11.63;4.05;;;;;;;16.46;58.60;100979.22;5030313;28;20033;-22
2021/09/08 05:25:23;;;;;;;17.42;6.95;;;;;;;16.33;58.18;100963.31;5029633;28;20091;-22
2021/09/08 05:27:49;;;;;;;12.13;5.50;;;;;;;16.47;57.78;100988.13;5029615;28;20029;-25
2021/09/08 05:30:14;;;;;;;17.20;8.55;;;;;;;16.41;57.91;100984.50;5029653;28;20033;-22
2021/09/08 05:32:40;;;;;;;7.05;4.30;;;;;;;16.36;57.84;100978.97;5029922;28;20033;-22
2021/09/08 05:35:06;;;;;;;5.47;3.20;;;;;;;16.47;57.27;100986.25;5029672;28;20032;-22
2021/09/08 05:37:31;;;;;;;6.88;3.30;;;;;;;16.58;57.67;100983.78;5029049;28;20029;-23
2021/09/08 05:39:57;;;;;;;18.90;9.05;;;;;;;16.95;56.59;100983.50;5029306;28;20063;-23
2021/09/08 05:42:22;;;;;;;10.45;5.15;;;;;;;17.29;56.13;100980.94;5028961;28;20039;-23
2021/09/08 05:44:47;;;;;;;10.82;5.50;;;;;;;17.12;55.96;100981.69;5029105;28;20052;-23
2021/09/08 05:47:13;;;;;;;20.33;11.68;;;;;;;17.05;55.70;100979.13;5027949;28;20489;-23
2021/09/08 05:49:38;;;;;;;13.88;8.73;;;;;;;17.23;55.20;100972.72;5028837;28;20099;-23
2021/09/08 05:52:04;;;;;;;20.42;12.93;;;;;;;17.22;55.39;100976.50;5029086;28;20468;-23
2021/09/08 05:54:30;;;;;;;41.08;22.63;;;;;;;16.99;55.58;100981.97;5028887;28;20041;-23
2021/09/08 05:56:56;;;;;;;15.77;6.60;;;;;;;16.90;55.75;100967.22;5028791;28;20037;-23
2021/09/08 05:59:21;;;;;;;12.00;6.68;;;;;;;17.05;56.01;100979.13;5029021;28;20034;-22
2021/09/08 06:01:46;;;;;;;8.05;4.30;;;;;;;17.01;56.33;100985.25;5029026;28;20029;-22
2021/09/08 06:04:12;;;;;;;9.23;4.80;;;;;;;17.36;54.57;100976.19;5027693;28;20034;-22
2021/09/08 06:06:37;;;;;;;11.00;4.47;;;;;;;17.76;54.13;100986.06;5029429;28;20469;-23
2021/09/08 06:09:03;;;;;;;18.80;9.77;;;;;;;17.50;53.94;100965.94;5029044;28;20092;-23
2021/09/08 06:11:28;;;;;;;18.33;8.68;;;;;;;17.34;54.29;100989.91;5028473;28;20058;-23
2021/09/08 06:13:55;;;;;;;10.65;4.45;;;;;;;17.38;55.73;100966.78;5029061;28;20044;-22
2021/09/08 06:16:21;;;;;;;10.20;4.85;;;;;;;17.49;53.93;100970.50;5028629;28;20140;-23
2021/09/08 06:18:47;;;;;;;11.80;6.15;;;;;;;17.63;53.90;100965.59;5028581;28;20112;-22
2021/09/08 06:21:12;;;;;;;7.93;4.38;;;;;;;17.87;52.86;100982.50;5028526;28;20041;-23
2021/09/08 06:23:38;;;;;;;7.13;3.00;;;;;;;18.21;52.60;100985.19;5028391;28;20087;-23
2021/09/08 06:26:03;;;;;;;4.20;2.83;;;;;;;18.05;53.49;100984.16;5028619;28;20038;-22
2021/09/08 06:28:30;;;;;;;7.43;3.05;;;;;;;17.96;52.34;100991.84;5028656;28;20029;-22
2021/09/08 06:30:56;;;;;;;8.88;3.20;;;;;;;18.17;52.59;100989.47;5028511;28;20063;-22
2021/09/08 06:33:21;;;;;;;7.40;3.33;;;;;;;18.18;52.78;100983.78;5026910;28;20025;-22
2021/09/08 06:35:46;;;;;;;5.30;2.97;;;;;;;18.33;51.81;100980.53;5028329;28;20472;-22
2021/09/08 06:38:12;;;;;;;8.15;3.50;;;;;;;18.09;52.46;100979.06;5028604;28;20037;-22
2021/09/08 06:40:37;;;;;;;9.20;3.47;;;;;;;17.93;53.85;100983.41;5028325;28;20133;-22
2021/09/08 06:43:03;;;;;;;9.48;3.40;;;;;;;18.10;52.78;100992.31;5028158;28;20463;-22
2021/09/08 06:45:28;;;;;;;7.47;3.00;;;;;;;18.62;52.01;100993.88;5028073;28;20037;-22
2021/09/08 06:47:54;;;;;;;8.32;2.97;;;;;;;18.93;51.00;100991.59;5028278;28;20133;-22
2021/09/08 06:50:19;;;;;;;7.20;3.33;;;;;;;18.61;51.74;100995.78;5028011;28;20052;-22
2021/09/08 06:52:45;;;;;;;7.03;3.28;;;;;;;18.65;49.96;100987.97;5028193;28;20488;-22
2021/09/08 06:55:10;;;;;;;7.00;3.00;;;;;;;18.52;50.58;101002.66;5028135;28;20041;-23
2021/09/08 06:57:36;;;;;;;7.78;3.00;;;;;;;18.76;49.33;100995.16;5027630;28;20133;-22
2021/09/08 07:00:01;;;;;;;7.63;3.10;;;;;;;18.73;49.68;101001.03;5026459;28;20029;-22
2021/09/08 07:02:27;;;;;;;6.28;3.10;;;;;;;19.01;49.56;101001.97;5027829;28;20029;-22
2021/09/08 07:04:52;;;;;;;8.68;3.33;;;;;;;19.52;48.76;101007.94;5027696;28;20064;-22
2021/09/08 07:07:20;;;;;;;5.82;2.83;;;;;;;19.46;48.30;101006.25;5027712;28;20473;-22
2021/09/08 07:09:46;;;;;;;8.63;3.20;;;;;;;19.51;48.39;101003.56;5027673;28;20120;-23
2021/09/08 07:12:11;;;;;;;6.57;3.00;;;;;;;19.11;49.42;100991.28;5027588;28;20497;-22
2021/09/08 07:14:37;;;;;;;5.65;2.80;;;;;;;19.46;47.98;101008.94;5027779;28;20034;-22
2021/09/08 07:17:02;;;;;;;7.00;3.20;;;;;;;19.41;47.62;101000.78;5027879;28;20033;-22
2021/09/08 07:19:28;;;;;;;6.78;3.05;;;;;;;19.68;47.80;101011.59;5027733;28;20033;-22
2021/09/08 07:21:53;;;;;;;7.55;3.13;;;;;;;19.94;47.24;101007.28;5027482;28;20061;-22
2021/09/08 07:24:19;;;;;;;6.28;2.45;;;;;;;19.95;46.10;100998.06;5027970;28;20410;-22
2021/09/08 07:26:44;;;;;;;9.75;3.25;;;;;;;20.13;46.88;100994.13;5027453;28;20083;-22
2021/09/08 07:29:10;;;;;;;6.95;2.80;;;;;;;20.52;45.56;101014.72;5027377;28;20599;-23
2021/09/08 07:31:35;;;;;;;7.07;2.40;;;;;;;20.26;45.48;101017.25;5027120;28;20033;-22
2021/09/08 07:34:01;;;;;;;7.15;2.50;;;;;;;20.32;45.99;101021.63;5027466;28;20140;-22
2021/09/08 07:36:26;;;;;;;8.27;2.97;;;;;;;20.59;47.26;101009.88;5027219;28;20033;-22
2021/09/08 07:38:52;;;;;;;6.65;2.58;;;;;;;20.35;45.94;100999.44;5027288;28;20033;-22
2021/09/08 07:41:18;;;;;;;7.35;2.72;;;;;;;20.65;45.43;101011.53;5027220;28;20068;-23
2021/09/08 07:43:43;;;;;;;8.00;2.80;;;;;;;20.96;45.75;101006.25;5027338;28;20120;-22
2021/09/08 07:46:11;;;;;;;8.43;5.10;;;;;;;20.79;44.82;101001.84;5027308;28;20104;-22
2021/09/08 07:48:36;;;;;;;8.77;4.53;;;;;;;21.06;45.16;101000.88;5027140;28;20044;-22
2021/09/08 07:51:02;;;;;;;7.20;3.88;;;;;;;21.37;44.13;101014.53;5027137;28;20029;-23
2021/09/08 07:53:27;;;;;;;4.85;2.17;;;;;;;21.02;44.40;101013.34;5027232;28;20414;-22
2021/09/08 07:55:53;;;;;;;8.13;2.80;;;;;;;20.49;46.29;101021.44;5027142;28;20017;-22
2021/09/08 07:58:18;;;;;;;6.10;2.25;;;;;;;20.40;45.27;101020.31;5027015;28;20509;-22
2021/09/08 08:00:44;;;;;;;5.60;2.53;;;;;;;20.57;45.59;101001.19;5027059;28;20083;-23
2021/09/08 08:03:09;;;;;;;4.60;2.20;;;;;;;20.98;44.76;101020.38;5027133;28;20030;-23
2021/09/08 08:05:35;;;;;;;8.05;2.50;;;;;;;21.07;43.16;101018.78;5026875;28;20030;-22
2021/09/08 08:08:00;;;;;;;5.88;2.40;;;;;;;21.43;43.19;101013.47;5027007;28;20468;-22
2021/09/08 08:10:26;;;;;;;5.45;2.30;;;;;;;21.38;43.29;101006.13;5027836;28;20084;-22
2021/09/08 08:12:52;;;;;;;4.90;2.50;;;;;;;21.21;44.22;101010.97;5029790;28;20045;-22
2021/09/08 08:15:17;;;;;;;7.10;2.65;;;;;;;21.19;43.85;100996.88;5030717;28;20036;-22
2021/09/08 08:17:43;;;;;;;4.50;2.30;;;;;;;21.13;43.44;100998.75;5030944;28;20048;-22
2021/09/08 08:20:09;;;;;;;6.18;2.05;;;;;;;21.20;44.02;100996.56;5030967;28;20039;-22
2021/09/08 08:22:35;;;;;;;6.57;2.50;;;;;;;21.63;41.55;101008.09;5030949;28;20029;-22
2021/09/08 08:25:02;;;;;;;5.57;1.83;;;;;;;21.55;43.30;100997.75;5030765;28;20041;-22
2021/09/08 08:27:27;;;;;;;6.72;2.47;;;;;;;21.52;42.04;101002.94;5030705;28;20105;-22
2021/09/08 08:29:53;;;;;;;5.32;2.30;;;;;;;22.23;41.87;100997.53;5030743;28;20048;-22
2021/09/08 08:32:18;;;;;;;6.25;2.47;;;;;;;22.24;42.14;100988.28;5029514;28;20048;-22
2021/09/08 08:34:44;;;;;;;5.15;2.10;;;;;;;22.66;40.31;100986.28;5031478;28;20512;-22
2021/09/08 08:37:09;;;;;;;5.10;1.90;;;;;;;22.69;40.78;100996.59;5030583;28;20025;-22
2021/09/08 08:39:38;;;;;;;14.52;6.53;;;;;;;22.66;39.85;100981.66;5030889;28;20045;-25
2021/09/08 08:42:04;;;;;;;6.50;2.40;;;;;;;22.24;40.82;100973.88;5030543;28;20036;-22
2021/09/08 08:44:29;;;;;;;4.43;1.85;;;;;;;22.81;39.41;100978.06;5028255;28;20029;-22
2021/09/08 08:46:55;;;;;;;10.25;1.90;;;;;;;22.85;39.32;100979.13;5012076;28;20876;-22
2021/09/08 08:49:20;;;;;;;5.38;1.73;;;;;;;23.01;39.23;100988.06;5030286;28;20037;-22
2021/09/08 08:51:49;;;;;;;5.50;1.60;;;;;;;23.13;37.39;100987.72;5030398;28;20072;-22
2021/09/08 08:54:14;;;;;;;6.97;1.50;;;;;;;23.30;37.93;100968.31;5030352;28;20030;-22
2021/09/08 08:56:40;;;;;;;5.43;1.80;;;;;;;23.26;38.17;100975.41;5030419;28;20474;-22
2021/09/08 08:59:05;;;;;;;4.05;1.55;;;;;;;23.53;37.23;100969.50;5030145;28;20029;-22
2021/09/08 09:01:32;;;;;;;3.33;1.20;;;;;;;23.02;36.79;100957.03;5029884;28;20041;-22
2021/09/08 09:04:00;;;;;;;8.38;1.95;;;;;;;22.99;38.58;100971.19;5030071;28;20041;-22
2021/09/08 09:06:26;;;;;;;4.15;1.80;;;;;;;23.00;37.35;100969.25;5030085;28;20025;-22
2021/09/08 09:08:59;;;;;;;4.55;1.40;;;;;;;23.35;37.44;100953.84;5029774;28;20520;-22
2021/09/08 09:11:24;;;;;;;6.18;1.70;;;;;;;23.99;37.26;100973.78;5029691;28;20081;-22
2021/09/08 09:13:50;;;;;;;4.55;1.65;;;;;;;24.23;36.76;100963.75;5029866;28;20064;-22
2021/09/08 09:16:15;;;;;;;3.63;1.55;;;;;;;24.21;35.91;100959.66;5030002;28;20030;-22
2021/09/08 09:18:45;;;;;;;5.10;1.90;;;;;;;23.61;35.88;100951.75;5030207;28;20423;-22
2021/09/08 09:21:15;;;;;;;2.72;1.48;;;;;;;23.59;37.43;100949.31;5029961;28;20037;-22
2021/09/08 09:23:47;;;;;;;3.00;1.40;;;;;;;23.97;35.53;100949.56;5029873;28;20030;-22
2021/09/08 09:26:13;;;;;;;4.07;1.33;;;;;;;24.17;35.15;100942.25;5029799;28;20471;-22
2021/09/08 09:28:40;;;;;;;5.93;1.75;;;;;;;24.45;33.58;100938.66;5030005;28;20033;-22
2021/09/08 09:31:16;;;;;;;3.25;1.40;;;;;;;25.00;34.59;100949.19;5028791;28;20033;-22
2021/09/08 09:33:47;;;;;;;3.50;1.60;;;;;;;24.43;34.44;100924.50;5029160;28;20033;-22
2021/09/08 09:36:14;;;;;;;4.63;1.80;;;;;;;24.06;35.78;100931.47;5028262;28;20432;-23
2021/09/08 09:38:40;;;;;;;;;;;;;;;23.81;36.61;100945.34;5029851;28;20571;-22
2021/09/08 09:41:06;;;;;;;4.50;1.83;;;;;;;23.33;36.67;100915.22;5029278;28;19963;-22
2021/09/08 09:43:31;;;;;;;3.35;1.75;;;;;;;23.27;37.13;100923.44;5031236;28;20025;-23
2021/09/08 09:45:57;;;;;;;4.78;1.63;;;;;;;23.49;37.35;100938.50;5048117;28;20028;-22
2021/09/08 09:48:22;;;;;;;4.30;1.55;;;;;;;23.76;36.44;100931.72;5048364;28;20033;-23
2021/09/08 09:53:22;;;;;;;5.75;1.75;;;;;;;23.58;36.46;100920.47;4832814;27;8420247;-22
2021/09/08 09:55:47;;;;;;;4.63;1.80;;;;;;;24.05;35.63;100920.88;5105434;28;20040;-22
2021/09/08 09:58:13;;;;;;;3.95;1.58;;;;;;;24.56;34.09;100905.84;5087010;28;20028;-22
2021/09/08 10:00:38;;;;;;;2.65;1.88;;;;;;;24.32;34.21;100906.66;5070629;28;20031;-22
2021/09/08 10:03:04;;;;;;;5.35;1.75;;;;;;;24.25;35.13;100912.47;5087629;28;20854;-22
2021/09/08 10:05:29;;;;;;;5.15;1.48;;;;;;;23.97;35.97;100900.50;5087403;28;20383;-22
2021/09/08 10:07:55;;;;;;;4.88;1.65;;;;;;;23.30;35.87;100885.84;5105224;28;20516;-22
2021/09/08 10:10:29;;;;;;;4.00;1.63;;;;;;;22.98;36.83;100903.44;5070617;28;20032;-22
2021/09/08 10:12:57;;;;;;;3.83;1.48;;;;;;;22.71;37.42;100899.25;5105144;28;20036;-22
2021/09/08 10:15:23;;;;;;;3.75;1.95;;;;;;;23.35;36.39;100899.41;5087263;28;20027;-22
2021/09/08 10:17:48;;;;;;;6.65;1.88;;;;;;;23.26;36.49;100889.13;5070121;28;20395;-22
2021/09/08 10:20:18;;;;;;;5.45;1.90;;;;;;;23.47;37.50;100897.94;5105269;28;20110;-22
2021/09/08 10:22:44;;;;;;;3.92;1.75;;;;;;;23.53;36.88;100890.53;5105089;28;20115;-22
2021/09/08 10:25:11;;;;;;;3.85;1.90;;;;;;;23.50;36.36;100880.25;5104760;28;20094;-22
2021/09/08 10:27:37;;;;;;;5.05;2.10;;;;;;;23.75;36.55;100881.09;5104320;28;20514;-22
2021/09/08 10:30:03;;;;;;;3.75;1.65;;;;;;;23.71;35.38;100875.41;5105239;28;20032;-22
2021/09/08 10:32:29;;;;;;;3.72;1.40;;;;;;;24.14;35.49;100877.44;5105416;28;20028;-22
2021/09/08 10:34:55;;;;;;;4.63;1.80;;;;;;;24.35;35.29;100870.63;5105527;28;20576;-22
2021/09/08 10:37:20;;;;;;;3.85;2.10;;;;;;;24.53;35.11;100871.00;5105266;28;20036;-22
2021/09/08 10:39:47;;;;;;;6.22;1.77;;;;;;;24.94;34.88;100873.16;5103684;28;20028;-22
2021/09/08 10:42:12;;;;;;;3.55;1.60;;;;;;;24.49;34.62;100856.31;5105084;28;20497;-22
2021/09/08 10:44:45;;;;;;;8.18;2.00;;;;;;;24.04;35.84;100872.91;5104881;28;20028;-22
2021/09/08 10:47:11;;;;;;;5.60;1.75;;;;;;;24.35;35.65;100853.47;5105051;28;20537;-22
2021/09/08 10:49:37;;;;;;;4.65;1.75;;;;;;;24.52;34.55;100872.09;5105156;28;20807;-22
2021/09/08 10:52:06;;;;;;;4.10;1.60;;;;;;;24.89;34.28;100870.50;5097683;28;20059;-22
2021/09/08 10:54:32;;;;;;;5.45;1.50;;;;;;;24.82;35.38;100876.31;5104969;28;20043;-21
2021/09/08 10:56:58;;;;;;;5.15;1.98;;;;;;;24.52;34.47;100856.56;5105064;28;20028;-22
2021/09/08 10:59:24;;;;;;;5.90;1.70;;;;;;;23.99;34.97;100867.53;5086849;28;20024;-22
2021/09/08 11:01:52;;;;;;;3.05;1.60;;;;;;;23.95;35.25;100861.84;5086286;28;20392;-22
2021/09/08 11:04:18;;;;;;;3.92;1.58;;;;;;;24.11;35.83;100851.59;5092533;28;20036;-22
2021/09/08 11:06:46;;;;;;;9.05;2.00;;;;;;;24.43;35.30;100867.25;5091006;28;20024;-22
2021/09/08 11:09:18;;;;;;;3.72;1.70;;;;;;;24.97;33.94;100856.22;5090796;28;20063;-22
2021/09/08 11:11:57;;;;;;;4.57;1.80;;;;;;;25.96;33.30;100857.00;5090584;28;20028;-22
2021/09/08 11:14:48;;;;;;;3.85;1.40;;;;;;;25.76;33.46;100861.69;5090650;28;20028;-22
2021/09/08 11:17:21;;;;;;;4.30;2.05;;;;;;;24.71;34.96;100842.94;5091107;28;20023;-22
2021/09/08 11:19:53;;;;;;;3.80;1.60;;;;;;;25.02;35.11;100840.53;5090464;28;20110;-22